sensor_id;sensor_type;location;lat;lon;timestamp;P1;durP1;ratioP1;P2;durP2;ratioP2
32186;SDS011;18686;53.084;8.872;2023-02-23T00:02:00;33.72;;;21.02;;
32186;SDS011;18686;53.084;8.872;2023-02-23T00:04:33;32.70;;;20.27;;
32186;SDS011;18686;53.084;8.872;2023-02-23T00:07:03;30.77;;;19.77;;
32186;SDS011;18686;53.084;8.872;2023-02-23T00:09:32;39.30;;;24.23;;
32186;SDS011;18686;53.084;8.872;2023-02-23T00:12:02;36.97;;;22.40;;
32186;SDS011;18686;53.084;8.872;2023-02-23T00:14:34;38.08;;;23.92;;
32186;SDS011;18686;53.084;8.872;2023-02-23T00:17:04;32.72;;;22.20;;
32186;SDS011;18686;53.084;8.872;2023-02-23T00:19:39;35.22;;;20.48;;
32186;SDS011;18686;53.084;8.872;2023-02-23T00:22:10;36.85;;;24.05;;
32186;SDS011;18686;53.084;8.872;2023-02-23T00:24:38;35.08;;;22.42;;
32186;SDS011;18686;53.084;8.872;2023-02-23T00:27:08;33.75;;;21.08;;
32186;SDS011;18686;53.084;8.872;2023-02-23T00:29:43;39.63;;;23.77;;
32186;SDS011;18686;53.084;8.872;2023-02-23T00:32:14;35.97;;;22.15;;
32186;SDS011;18686;53.084;8.872;2023-02-23T00:34:45;39.50;;;25.77;;
32186;SDS011;18686;53.084;8.872;2023-02-23T00:37:16;35.30;;;23.55;;
32186;SDS011;18686;53.084;8.872;2023-02-23T00:39:46;33.53;;;22.35;;
32186;SDS011;18686;53.084;8.872;2023-02-23T00:42:15;33.65;;;22.35;;
32186;SDS011;18686;53.084;8.872;2023-02-23T00:44:43;33.22;;;21.25;;
32186;SDS011;18686;53.084;8.872;2023-02-23T00:47:13;29.23;;;20.30;;
32186;SDS011;18686;53.084;8.872;2023-02-23T00:49:41;32.25;;;20.88;;
32186;SDS011;18686;53.084;8.872;2023-02-23T00:52:10;31.75;;;21.42;;
32186;SDS011;18686;53.084;8.872;2023-02-23T00:54:41;30.17;;;19.95;;
32186;SDS011;18686;53.084;8.872;2023-02-23T00:57:10;33.88;;;21.48;;
32186;SDS011;18686;53.084;8.872;2023-02-23T00:59:38;34.58;;;22.58;;
32186;SDS011;18686;53.084;8.872;2023-02-23T01:02:07;34.05;;;22.95;;
32186;SDS011;18686;53.084;8.872;2023-02-23T01:04:35;37.05;;;24.65;;
32186;SDS011;18686;53.084;8.872;2023-02-23T01:07:04;37.75;;;25.30;;
32186;SDS011;18686;53.084;8.872;2023-02-23T01:09:32;46.38;;;28.02;;
32186;SDS011;18686;53.084;8.872;2023-02-23T01:12:04;42.55;;;27.27;;
32186;SDS011;18686;53.084;8.872;2023-02-23T01:14:33;50.00;;;30.33;;
32186;SDS011;18686;53.084;8.872;2023-02-23T01:17:02;50.58;;;32.10;;
32186;SDS011;18686;53.084;8.872;2023-02-23T01:19:31;53.92;;;33.90;;
32186;SDS011;18686;53.084;8.872;2023-02-23T01:22:01;60.25;;;34.97;;
32186;SDS011;18686;53.084;8.872;2023-02-23T01:24:30;59.38;;;36.80;;
32186;SDS011;18686;53.084;8.872;2023-02-23T01:26:58;57.70;;;35.42;;
32186;SDS011;18686;53.084;8.872;2023-02-23T01:29:28;61.13;;;37.17;;
32186;SDS011;18686;53.084;8.872;2023-02-23T01:31:56;66.53;;;38.10;;
32186;SDS011;18686;53.084;8.872;2023-02-23T01:34:24;59.08;;;37.15;;
32186;SDS011;18686;53.084;8.872;2023-02-23T01:36:53;65.30;;;39.10;;
32186;SDS011;18686;53.084;8.872;2023-02-23T01:39:22;66.38;;;39.63;;
32186;SDS011;18686;53.084;8.872;2023-02-23T01:41:50;59.80;;;36.47;;
32186;SDS011;18686;53.084;8.872;2023-02-23T01:47:24;61.30;;;36.05;;
32186;SDS011;18686;53.084;8.872;2023-02-23T01:49:52;67.75;;;39.38;;
32186;SDS011;18686;53.084;8.872;2023-02-23T01:52:21;60.78;;;37.22;;
32186;SDS011;18686;53.084;8.872;2023-02-23T01:54:50;65.68;;;37.95;;
32186;SDS011;18686;53.084;8.872;2023-02-23T01:57:21;65.90;;;37.17;;
32186;SDS011;18686;53.084;8.872;2023-02-23T01:59:52;65.25;;;38.95;;
32186;SDS011;18686;53.084;8.872;2023-02-23T02:02:22;60.45;;;35.35;;
32186;SDS011;18686;53.084;8.872;2023-02-23T02:04:59;61.75;;;36.90;;
32186;SDS011;18686;53.084;8.872;2023-02-23T02:07:30;62.58;;;36.90;;
32186;SDS011;18686;53.084;8.872;2023-02-23T02:10:01;64.00;;;36.03;;
32186;SDS011;18686;53.084;8.872;2023-02-23T02:12:45;62.72;;;35.28;;
32186;SDS011;18686;53.084;8.872;2023-02-23T02:15:19;59.97;;;34.60;;
32186;SDS011;18686;53.084;8.872;2023-02-23T02:17:55;63.42;;;34.60;;
32186;SDS011;18686;53.084;8.872;2023-02-23T02:24:01;59.97;;;34.72;;
32186;SDS011;18686;53.084;8.872;2023-02-23T02:27:08;56.13;;;34.60;;
32186;SDS011;18686;53.084;8.872;2023-02-23T02:29:56;61.10;;;35.33;;
32186;SDS011;18686;53.084;8.872;2023-02-23T02:33:10;57.40;;;34.22;;
32186;SDS011;18686;53.084;8.872;2023-02-23T02:39:26;56.25;;;34.70;;
32186;SDS011;18686;53.084;8.872;2023-02-23T02:42:06;57.67;;;33.28;;
32186;SDS011;18686;53.084;8.872;2023-02-23T02:44:55;56.28;;;33.13;;
32186;SDS011;18686;53.084;8.872;2023-02-23T02:47:31;59.95;;;35.08;;
32186;SDS011;18686;53.084;8.872;2023-02-23T02:50:07;60.60;;;36.25;;
32186;SDS011;18686;53.084;8.872;2023-02-23T02:52:42;57.92;;;34.60;;
32186;SDS011;18686;53.084;8.872;2023-02-23T02:55:17;60.42;;;33.97;;
32186;SDS011;18686;53.084;8.872;2023-02-23T02:57:51;55.03;;;33.72;;
32186;SDS011;18686;53.084;8.872;2023-02-23T03:00:29;59.35;;;33.97;;
32186;SDS011;18686;53.084;8.872;2023-02-23T03:03:29;57.00;;;34.03;;
32186;SDS011;18686;53.084;8.872;2023-02-23T03:06:17;54.05;;;32.35;;
32186;SDS011;18686;53.084;8.872;2023-02-23T03:09:06;55.58;;;32.03;;
32186;SDS011;18686;53.084;8.872;2023-02-23T03:12:08;54.95;;;32.78;;
32186;SDS011;18686;53.084;8.872;2023-02-23T03:14:59;51.83;;;32.08;;
32186;SDS011;18686;53.084;8.872;2023-02-23T03:17:54;50.38;;;30.48;;
32186;SDS011;18686;53.084;8.872;2023-02-23T03:20:49;55.20;;;32.28;;
32186;SDS011;18686;53.084;8.872;2023-02-23T03:23:42;53.13;;;32.30;;
32186;SDS011;18686;53.084;8.872;2023-02-23T03:26:34;55.40;;;32.75;;
32186;SDS011;18686;53.084;8.872;2023-02-23T03:29:30;53.83;;;33.00;;
32186;SDS011;18686;53.084;8.872;2023-02-23T03:32:22;58.42;;;35.13;;
32186;SDS011;18686;53.084;8.872;2023-02-23T03:35:13;52.80;;;32.25;;
32186;SDS011;18686;53.084;8.872;2023-02-23T03:38:05;54.97;;;33.83;;
32186;SDS011;18686;53.084;8.872;2023-02-23T03:40:58;53.08;;;32.55;;
32186;SDS011;18686;53.084;8.872;2023-02-23T03:43:45;58.08;;;33.30;;
32186;SDS011;18686;53.084;8.872;2023-02-23T03:46:38;52.28;;;31.42;;
32186;SDS011;18686;53.084;8.872;2023-02-23T03:49:26;61.00;;;33.25;;
32186;SDS011;18686;53.084;8.872;2023-02-23T03:52:17;50.78;;;32.53;;
32186;SDS011;18686;53.084;8.872;2023-02-23T03:55:08;54.40;;;33.47;;
32186;SDS011;18686;53.084;8.872;2023-02-23T03:57:57;50.85;;;30.80;;
32186;SDS011;18686;53.084;8.872;2023-02-23T04:00:47;49.70;;;30.92;;
32186;SDS011;18686;53.084;8.872;2023-02-23T04:03:37;44.92;;;29.08;;
32186;SDS011;18686;53.084;8.872;2023-02-23T04:06:26;50.38;;;30.73;;
32186;SDS011;18686;53.084;8.872;2023-02-23T04:09:15;52.53;;;31.60;;
32186;SDS011;18686;53.084;8.872;2023-02-23T04:12:03;49.50;;;30.25;;
32186;SDS011;18686;53.084;8.872;2023-02-23T04:14:55;53.65;;;32.33;;
32186;SDS011;18686;53.084;8.872;2023-02-23T04:17:26;48.03;;;30.60;;
32186;SDS011;18686;53.084;8.872;2023-02-23T04:20:02;49.65;;;30.83;;
32186;SDS011;18686;53.084;8.872;2023-02-23T04:22:32;55.15;;;31.23;;
32186;SDS011;18686;53.084;8.872;2023-02-23T04:25:01;47.28;;;30.67;;
32186;SDS011;18686;53.084;8.872;2023-02-23T04:27:31;53.40;;;31.08;;
32186;SDS011;18686;53.084;8.872;2023-02-23T04:29:59;51.55;;;31.98;;
32186;SDS011;18686;53.084;8.872;2023-02-23T04:32:29;54.08;;;31.95;;
32186;SDS011;18686;53.084;8.872;2023-02-23T04:34:57;54.72;;;32.30;;
32186;SDS011;18686;53.084;8.872;2023-02-23T04:37:27;58.38;;;32.28;;
32186;SDS011;18686;53.084;8.872;2023-02-23T04:39:55;58.10;;;32.53;;
32186;SDS011;18686;53.084;8.872;2023-02-23T04:42:23;51.85;;;31.15;;
32186;SDS011;18686;53.084;8.872;2023-02-23T04:44:51;55.33;;;32.92;;
32186;SDS011;18686;53.084;8.872;2023-02-23T04:47:20;54.38;;;32.03;;
32186;SDS011;18686;53.084;8.872;2023-02-23T04:49:48;50.97;;;31.33;;
32186;SDS011;18686;53.084;8.872;2023-02-23T04:52:17;55.35;;;32.22;;
32186;SDS011;18686;53.084;8.872;2023-02-23T04:54:46;54.67;;;31.30;;
32186;SDS011;18686;53.084;8.872;2023-02-23T04:57:14;57.10;;;32.97;;
32186;SDS011;18686;53.084;8.872;2023-02-23T04:59:43;60.55;;;34.55;;
32186;SDS011;18686;53.084;8.872;2023-02-23T05:02:11;56.85;;;32.92;;
32186;SDS011;18686;53.084;8.872;2023-02-23T05:04:39;54.83;;;32.17;;
32186;SDS011;18686;53.084;8.872;2023-02-23T05:07:07;53.10;;;31.70;;
32186;SDS011;18686;53.084;8.872;2023-02-23T05:09:35;60.80;;;35.45;;
32186;SDS011;18686;53.084;8.872;2023-02-23T05:12:05;59.65;;;34.25;;
32186;SDS011;18686;53.084;8.872;2023-02-23T05:14:33;59.78;;;34.15;;
32186;SDS011;18686;53.084;8.872;2023-02-23T05:17:02;58.08;;;33.67;;
32186;SDS011;18686;53.084;8.872;2023-02-23T05:19:33;57.53;;;33.35;;
32186;SDS011;18686;53.084;8.872;2023-02-23T05:22:02;58.83;;;33.88;;
32186;SDS011;18686;53.084;8.872;2023-02-23T05:24:30;55.97;;;31.83;;
32186;SDS011;18686;53.084;8.872;2023-02-23T05:26:59;57.28;;;32.80;;
32186;SDS011;18686;53.084;8.872;2023-02-23T05:29:28;61.22;;;32.67;;
32186;SDS011;18686;53.084;8.872;2023-02-23T05:31:56;57.35;;;33.13;;
32186;SDS011;18686;53.084;8.872;2023-02-23T05:34:26;55.63;;;32.38;;
32186;SDS011;18686;53.084;8.872;2023-02-23T05:36:54;57.80;;;32.45;;
32186;SDS011;18686;53.084;8.872;2023-02-23T05:39:23;57.70;;;32.55;;
32186;SDS011;18686;53.084;8.872;2023-02-23T05:41:51;56.92;;;33.03;;
32186;SDS011;18686;53.084;8.872;2023-02-23T05:44:20;56.22;;;32.83;;
32186;SDS011;18686;53.084;8.872;2023-02-23T05:46:49;53.17;;;31.75;;
32186;SDS011;18686;53.084;8.872;2023-02-23T05:49:18;58.22;;;33.03;;
32186;SDS011;18686;53.084;8.872;2023-02-23T05:51:46;62.30;;;33.88;;
32186;SDS011;18686;53.084;8.872;2023-02-23T05:54:15;60.85;;;34.50;;
32186;SDS011;18686;53.084;8.872;2023-02-23T05:56:43;56.17;;;32.63;;
32186;SDS011;18686;53.084;8.872;2023-02-23T05:59:11;55.22;;;33.05;;
32186;SDS011;18686;53.084;8.872;2023-02-23T06:01:39;62.58;;;34.97;;
32186;SDS011;18686;53.084;8.872;2023-02-23T06:04:09;56.95;;;33.15;;
32186;SDS011;18686;53.084;8.872;2023-02-23T06:06:38;58.78;;;33.83;;
32186;SDS011;18686;53.084;8.872;2023-02-23T06:09:06;64.75;;;35.95;;
32186;SDS011;18686;53.084;8.872;2023-02-23T06:11:34;58.22;;;33.95;;
32186;SDS011;18686;53.084;8.872;2023-02-23T06:14:03;63.25;;;35.67;;
32186;SDS011;18686;53.084;8.872;2023-02-23T06:16:31;58.75;;;32.25;;
32186;SDS011;18686;53.084;8.872;2023-02-23T06:18:59;63.92;;;34.58;;
32186;SDS011;18686;53.084;8.872;2023-02-23T06:21:29;63.90;;;35.45;;
32186;SDS011;18686;53.084;8.872;2023-02-23T06:23:57;65.78;;;36.50;;
32186;SDS011;18686;53.084;8.872;2023-02-23T06:26:26;68.60;;;37.40;;
32186;SDS011;18686;53.084;8.872;2023-02-23T06:28:54;72.22;;;37.40;;
32186;SDS011;18686;53.084;8.872;2023-02-23T06:31:22;72.80;;;37.83;;
32186;SDS011;18686;53.084;8.872;2023-02-23T06:33:51;70.90;;;37.42;;
32186;SDS011;18686;53.084;8.872;2023-02-23T06:36:19;69.80;;;36.47;;
32186;SDS011;18686;53.084;8.872;2023-02-23T06:38:49;68.15;;;36.72;;
32186;SDS011;18686;53.084;8.872;2023-02-23T06:41:17;70.30;;;36.83;;
32186;SDS011;18686;53.084;8.872;2023-02-23T06:43:46;69.65;;;36.00;;
32186;SDS011;18686;53.084;8.872;2023-02-23T06:46:14;68.78;;;36.75;;
32186;SDS011;18686;53.084;8.872;2023-02-23T06:48:43;62.78;;;34.92;;
32186;SDS011;18686;53.084;8.872;2023-02-23T06:51:12;65.40;;;35.97;;
32186;SDS011;18686;53.084;8.872;2023-02-23T06:53:40;65.72;;;36.58;;
32186;SDS011;18686;53.084;8.872;2023-02-23T06:56:10;66.88;;;36.85;;
32186;SDS011;18686;53.084;8.872;2023-02-23T06:58:39;69.47;;;35.80;;
32186;SDS011;18686;53.084;8.872;2023-02-23T07:01:08;63.45;;;34.97;;
32186;SDS011;18686;53.084;8.872;2023-02-23T07:03:37;67.88;;;35.35;;
32186;SDS011;18686;53.084;8.872;2023-02-23T07:06:06;70.10;;;38.25;;
32186;SDS011;18686;53.084;8.872;2023-02-23T07:08:34;66.25;;;36.30;;
32186;SDS011;18686;53.084;8.872;2023-02-23T07:11:06;67.07;;;36.13;;
32186;SDS011;18686;53.084;8.872;2023-02-23T07:13:37;69.30;;;36.97;;
32186;SDS011;18686;53.084;8.872;2023-02-23T07:16:05;70.07;;;37.70;;
32186;SDS011;18686;53.084;8.872;2023-02-23T07:18:34;70.03;;;37.83;;
32186;SDS011;18686;53.084;8.872;2023-02-23T07:21:04;73.05;;;37.13;;
32186;SDS011;18686;53.084;8.872;2023-02-23T07:23:33;71.95;;;38.00;;
32186;SDS011;18686;53.084;8.872;2023-02-23T07:26:01;76.18;;;39.22;;
32186;SDS011;18686;53.084;8.872;2023-02-23T07:28:30;79.13;;;39.75;;
32186;SDS011;18686;53.084;8.872;2023-02-23T07:30:59;80.25;;;41.03;;
32186;SDS011;18686;53.084;8.872;2023-02-23T07:33:28;76.18;;;39.08;;
32186;SDS011;18686;53.084;8.872;2023-02-23T07:35:58;75.30;;;38.90;;
32186;SDS011;18686;53.084;8.872;2023-02-23T07:38:26;83.68;;;41.38;;
32186;SDS011;18686;53.084;8.872;2023-02-23T07:40:54;75.70;;;39.25;;
32186;SDS011;18686;53.084;8.872;2023-02-23T07:43:22;83.60;;;41.45;;
32186;SDS011;18686;53.084;8.872;2023-02-23T07:45:51;88.85;;;43.35;;
32186;SDS011;18686;53.084;8.872;2023-02-23T07:48:20;82.72;;;41.65;;
32186;SDS011;18686;53.084;8.872;2023-02-23T07:50:49;87.53;;;42.65;;
32186;SDS011;18686;53.084;8.872;2023-02-23T07:53:17;91.18;;;44.60;;
32186;SDS011;18686;53.084;8.872;2023-02-23T07:55:45;82.32;;;42.75;;
32186;SDS011;18686;53.084;8.872;2023-02-23T07:58:21;92.03;;;43.97;;
32186;SDS011;18686;53.084;8.872;2023-02-23T08:00:49;82.78;;;43.28;;
32186;SDS011;18686;53.084;8.872;2023-02-23T08:03:18;91.65;;;44.92;;
32186;SDS011;18686;53.084;8.872;2023-02-23T08:05:47;83.38;;;41.85;;
32186;SDS011;18686;53.084;8.872;2023-02-23T08:08:15;86.00;;;42.55;;
32186;SDS011;18686;53.084;8.872;2023-02-23T08:10:44;89.45;;;43.83;;
32186;SDS011;18686;53.084;8.872;2023-02-23T08:13:15;84.07;;;42.15;;
32186;SDS011;18686;53.084;8.872;2023-02-23T08:15:44;83.75;;;41.35;;
32186;SDS011;18686;53.084;8.872;2023-02-23T08:18:12;84.40;;;41.10;;
32186;SDS011;18686;53.084;8.872;2023-02-23T08:20:41;93.25;;;44.30;;
32186;SDS011;18686;53.084;8.872;2023-02-23T08:23:10;92.20;;;44.13;;
32186;SDS011;18686;53.084;8.872;2023-02-23T08:25:38;85.03;;;43.45;;
32186;SDS011;18686;53.084;8.872;2023-02-23T08:28:07;95.75;;;45.63;;
32186;SDS011;18686;53.084;8.872;2023-02-23T08:30:35;94.75;;;45.17;;
32186;SDS011;18686;53.084;8.872;2023-02-23T08:33:05;90.97;;;44.53;;
32186;SDS011;18686;53.084;8.872;2023-02-23T08:35:33;98.80;;;47.88;;
32186;SDS011;18686;53.084;8.872;2023-02-23T08:38:02;95.57;;;43.42;;
32186;SDS011;18686;53.084;8.872;2023-02-23T08:40:31;103.05;;;47.60;;
32186;SDS011;18686;53.084;8.872;2023-02-23T08:43:00;93.07;;;44.78;;
32186;SDS011;18686;53.084;8.872;2023-02-23T08:45:28;93.75;;;44.35;;
32186;SDS011;18686;53.084;8.872;2023-02-23T08:47:56;101.70;;;46.08;;
32186;SDS011;18686;53.084;8.872;2023-02-23T08:50:24;100.63;;;47.45;;
32186;SDS011;18686;53.084;8.872;2023-02-23T08:52:53;115.82;;;50.60;;
32186;SDS011;18686;53.084;8.872;2023-02-23T08:55:21;116.53;;;50.13;;
32186;SDS011;18686;53.084;8.872;2023-02-23T08:57:50;114.38;;;48.85;;
32186;SDS011;18686;53.084;8.872;2023-02-23T09:00:19;106.93;;;46.17;;
32186;SDS011;18686;53.084;8.872;2023-02-23T09:02:48;105.78;;;48.67;;
32186;SDS011;18686;53.084;8.872;2023-02-23T09:05:17;118.53;;;49.00;;
32186;SDS011;18686;53.084;8.872;2023-02-23T09:07:45;131.70;;;52.20;;
32186;SDS011;18686;53.084;8.872;2023-02-23T09:10:15;110.15;;;47.22;;
32186;SDS011;18686;53.084;8.872;2023-02-23T09:12:46;113.13;;;47.42;;
32186;SDS011;18686;53.084;8.872;2023-02-23T09:15:15;116.68;;;47.28;;
32186;SDS011;18686;53.084;8.872;2023-02-23T09:17:44;102.57;;;44.75;;
32186;SDS011;18686;53.084;8.872;2023-02-23T09:20:13;114.68;;;46.60;;
32186;SDS011;18686;53.084;8.872;2023-02-23T09:22:42;116.20;;;46.42;;
32186;SDS011;18686;53.084;8.872;2023-02-23T09:25:14;113.18;;;45.58;;
32186;SDS011;18686;53.084;8.872;2023-02-23T09:27:44;122.10;;;48.20;;
32186;SDS011;18686;53.084;8.872;2023-02-23T09:30:13;125.72;;;49.35;;
32186;SDS011;18686;53.084;8.872;2023-02-23T09:32:46;129.40;;;50.60;;
32186;SDS011;18686;53.084;8.872;2023-02-23T09:35:15;110.47;;;47.08;;
32186;SDS011;18686;53.084;8.872;2023-02-23T09:37:45;128.88;;;50.05;;
32186;SDS011;18686;53.084;8.872;2023-02-23T09:40:14;123.13;;;47.58;;
32186;SDS011;18686;53.084;8.872;2023-02-23T09:42:48;115.85;;;46.58;;
32186;SDS011;18686;53.084;8.872;2023-02-23T09:45:25;112.78;;;44.65;;
32186;SDS011;18686;53.084;8.872;2023-02-23T09:48:05;96.63;;;41.70;;
32186;SDS011;18686;53.084;8.872;2023-02-23T09:50:38;104.43;;;42.58;;
32186;SDS011;18686;53.084;8.872;2023-02-23T09:53:12;92.97;;;41.47;;
32186;SDS011;18686;53.084;8.872;2023-02-23T09:55:51;95.93;;;41.67;;
32186;SDS011;18686;53.084;8.872;2023-02-23T09:58:22;83.05;;;37.88;;
32186;SDS011;18686;53.084;8.872;2023-02-23T10:00:56;83.38;;;37.60;;
32186;SDS011;18686;53.084;8.872;2023-02-23T10:03:49;90.68;;;39.65;;
32186;SDS011;18686;53.084;8.872;2023-02-23T10:06:22;76.40;;;36.38;;
32186;SDS011;18686;53.084;8.872;2023-02-23T10:08:54;67.60;;;34.35;;
32186;SDS011;18686;53.084;8.872;2023-02-23T10:11:33;80.75;;;37.75;;
32186;SDS011;18686;53.084;8.872;2023-02-23T10:14:12;78.18;;;36.08;;
32186;SDS011;18686;53.084;8.872;2023-02-23T10:16:55;76.30;;;36.10;;
32186;SDS011;18686;53.084;8.872;2023-02-23T10:19:33;73.18;;;34.38;;
32186;SDS011;18686;53.084;8.872;2023-02-23T10:22:10;75.32;;;35.20;;
32186;SDS011;18686;53.084;8.872;2023-02-23T10:24:41;72.07;;;34.92;;
32186;SDS011;18686;53.084;8.872;2023-02-23T10:27:14;69.47;;;34.35;;
32186;SDS011;18686;53.084;8.872;2023-02-23T10:29:45;69.55;;;32.92;;
32186;SDS011;18686;53.084;8.872;2023-02-23T10:32:19;67.43;;;32.13;;
32186;SDS011;18686;53.084;8.872;2023-02-23T10:34:53;56.38;;;29.20;;
32186;SDS011;18686;53.084;8.872;2023-02-23T10:37:22;52.00;;;28.50;;
32186;SDS011;18686;53.084;8.872;2023-02-23T10:39:52;57.42;;;30.27;;
32186;SDS011;18686;53.084;8.872;2023-02-23T10:42:21;60.55;;;30.52;;
32186;SDS011;18686;53.084;8.872;2023-02-23T10:44:55;57.70;;;29.80;;
32186;SDS011;18686;53.084;8.872;2023-02-23T10:47:25;61.30;;;30.23;;
32186;SDS011;18686;53.084;8.872;2023-02-23T10:49:56;52.90;;;29.27;;
32186;SDS011;18686;53.084;8.872;2023-02-23T10:52:28;61.03;;;30.38;;
32186;SDS011;18686;53.084;8.872;2023-02-23T10:55:01;58.00;;;29.10;;
32186;SDS011;18686;53.084;8.872;2023-02-23T10:57:32;57.05;;;29.92;;
32186;SDS011;18686;53.084;8.872;2023-02-23T11:00:10;60.92;;;29.92;;
32186;SDS011;18686;53.084;8.872;2023-02-23T11:03:00;64.43;;;32.22;;
32186;SDS011;18686;53.084;8.872;2023-02-23T11:05:31;65.43;;;32.25;;
32186;SDS011;18686;53.084;8.872;2023-02-23T11:08:08;63.13;;;31.20;;
32186;SDS011;18686;53.084;8.872;2023-02-23T11:10:37;62.63;;;30.08;;
32186;SDS011;18686;53.084;8.872;2023-02-23T11:13:09;66.40;;;32.85;;
32186;SDS011;18686;53.084;8.872;2023-02-23T11:15:48;65.32;;;32.13;;
32186;SDS011;18686;53.084;8.872;2023-02-23T11:18:27;73.68;;;36.40;;
32186;SDS011;18686;53.084;8.872;2023-02-23T11:20:56;76.43;;;34.78;;
32186;SDS011;18686;53.084;8.872;2023-02-23T11:23:25;80.50;;;35.70;;
32186;SDS011;18686;53.084;8.872;2023-02-23T11:25:56;79.55;;;38.00;;
32186;SDS011;18686;53.084;8.872;2023-02-23T11:28:28;85.72;;;38.03;;
32186;SDS011;18686;53.084;8.872;2023-02-23T11:30:59;82.85;;;37.65;;
32186;SDS011;18686;53.084;8.872;2023-02-23T11:33:32;100.47;;;42.97;;
32186;SDS011;18686;53.084;8.872;2023-02-23T11:36:13;85.38;;;40.25;;
32186;SDS011;18686;53.084;8.872;2023-02-23T11:38:44;86.68;;;39.35;;
32186;SDS011;18686;53.084;8.872;2023-02-23T11:41:17;87.68;;;38.92;;
32186;SDS011;18686;53.084;8.872;2023-02-23T11:43:48;92.32;;;39.92;;
32186;SDS011;18686;53.084;8.872;2023-02-23T11:46:17;88.20;;;40.30;;
32186;SDS011;18686;53.084;8.872;2023-02-23T11:48:50;96.18;;;41.72;;
32186;SDS011;18686;53.084;8.872;2023-02-23T11:51:25;97.72;;;43.35;;
32186;SDS011;18686;53.084;8.872;2023-02-23T11:53:57;96.35;;;41.67;;
32186;SDS011;18686;53.084;8.872;2023-02-23T11:56:26;93.72;;;39.53;;
32186;SDS011;18686;53.084;8.872;2023-02-23T11:58:58;87.00;;;37.63;;
32186;SDS011;18686;53.084;8.872;2023-02-23T12:01:36;82.28;;;37.67;;
32186;SDS011;18686;53.084;8.872;2023-02-23T12:04:12;92.65;;;38.28;;
32186;SDS011;18686;53.084;8.872;2023-02-23T12:07:16;90.20;;;36.38;;
32186;SDS011;18686;53.084;8.872;2023-02-23T12:09:52;92.68;;;37.33;;
32186;SDS011;18686;53.084;8.872;2023-02-23T12:12:26;88.57;;;35.95;;
32186;SDS011;18686;53.084;8.872;2023-02-23T12:14:58;90.60;;;37.38;;
32186;SDS011;18686;53.084;8.872;2023-02-23T12:17:35;87.43;;;36.72;;
32186;SDS011;18686;53.084;8.872;2023-02-23T12:20:13;81.97;;;35.20;;
32186;SDS011;18686;53.084;8.872;2023-02-23T12:22:45;83.18;;;35.15;;
32186;SDS011;18686;53.084;8.872;2023-02-23T12:25:19;84.03;;;36.67;;
32186;SDS011;18686;53.084;8.872;2023-02-23T12:27:53;91.32;;;36.65;;
32186;SDS011;18686;53.084;8.872;2023-02-23T12:30:45;92.70;;;37.70;;
32186;SDS011;18686;53.084;8.872;2023-02-23T12:33:35;95.30;;;39.45;;
32186;SDS011;18686;53.084;8.872;2023-02-23T12:36:13;96.45;;;40.83;;
32186;SDS011;18686;53.084;8.872;2023-02-23T12:38:48;107.35;;;42.50;;
32186;SDS011;18686;53.084;8.872;2023-02-23T12:41:24;100.15;;;42.17;;
32186;SDS011;18686;53.084;8.872;2023-02-23T12:43:59;96.40;;;39.92;;
32186;SDS011;18686;53.084;8.872;2023-02-23T12:46:40;117.70;;;45.17;;
32186;SDS011;18686;53.084;8.872;2023-02-23T12:49:15;113.90;;;44.50;;
32186;SDS011;18686;53.084;8.872;2023-02-23T12:51:53;118.65;;;46.47;;
32186;SDS011;18686;53.084;8.872;2023-02-23T12:54:24;118.88;;;45.92;;
32186;SDS011;18686;53.084;8.872;2023-02-23T12:56:56;126.88;;;46.90;;
32186;SDS011;18686;53.084;8.872;2023-02-23T12:59:46;118.47;;;45.20;;
32186;SDS011;18686;53.084;8.872;2023-02-23T13:02:37;111.43;;;44.00;;
32186;SDS011;18686;53.084;8.872;2023-02-23T13:05:14;119.30;;;44.38;;
32186;SDS011;18686;53.084;8.872;2023-02-23T13:07:53;101.63;;;41.67;;
32186;SDS011;18686;53.084;8.872;2023-02-23T13:10:41;104.28;;;42.78;;
32186;SDS011;18686;53.084;8.872;2023-02-23T13:13:23;93.40;;;40.25;;
32186;SDS011;18686;53.084;8.872;2023-02-23T13:15:59;97.75;;;41.85;;
32186;SDS011;18686;53.084;8.872;2023-02-23T13:18:34;103.80;;;41.88;;
32186;SDS011;18686;53.084;8.872;2023-02-23T13:21:10;106.10;;;42.97;;
32186;SDS011;18686;53.084;8.872;2023-02-23T13:23:52;95.28;;;39.63;;
32186;SDS011;18686;53.084;8.872;2023-02-23T13:26:27;99.05;;;41.78;;
32186;SDS011;18686;53.084;8.872;2023-02-23T13:29:05;95.03;;;40.17;;
32186;SDS011;18686;53.084;8.872;2023-02-23T13:31:51;99.07;;;40.60;;
32186;SDS011;18686;53.084;8.872;2023-02-23T13:34:22;86.90;;;37.13;;
32186;SDS011;18686;53.084;8.872;2023-02-23T13:36:53;83.93;;;37.38;;
32186;SDS011;18686;53.084;8.872;2023-02-23T13:39:30;79.13;;;35.83;;
32186;SDS011;18686;53.084;8.872;2023-02-23T13:42:12;82.82;;;36.78;;
32186;SDS011;18686;53.084;8.872;2023-02-23T13:44:51;83.90;;;36.25;;
32186;SDS011;18686;53.084;8.872;2023-02-23T13:47:31;80.07;;;34.80;;
32186;SDS011;18686;53.084;8.872;2023-02-23T13:50:11;77.68;;;35.83;;
32186;SDS011;18686;53.084;8.872;2023-02-23T13:52:48;89.47;;;37.42;;
32186;SDS011;18686;53.084;8.872;2023-02-23T13:55:41;73.95;;;34.60;;
32186;SDS011;18686;53.084;8.872;2023-02-23T13:58:18;72.32;;;32.88;;
32186;SDS011;18686;53.084;8.872;2023-02-23T14:00:53;74.28;;;34.20;;
32186;SDS011;18686;53.084;8.872;2023-02-23T14:03:34;72.18;;;34.00;;
32186;SDS011;18686;53.084;8.872;2023-02-23T14:06:10;69.57;;;33.15;;
32186;SDS011;18686;53.084;8.872;2023-02-23T14:08:41;76.80;;;38.30;;
32186;SDS011;18686;53.084;8.872;2023-02-23T14:14:04;69.97;;;33.60;;
32186;SDS011;18686;53.084;8.872;2023-02-23T14:16:33;71.53;;;33.10;;
32186;SDS011;18686;53.084;8.872;2023-02-23T14:19:09;73.07;;;33.65;;
32186;SDS011;18686;53.084;8.872;2023-02-23T14:21:42;71.57;;;32.88;;
32186;SDS011;18686;53.084;8.872;2023-02-23T14:24:17;68.45;;;32.38;;
32186;SDS011;18686;53.084;8.872;2023-02-23T14:30:13;71.40;;;31.90;;
32186;SDS011;18686;53.084;8.872;2023-02-23T14:32:47;58.75;;;28.98;;
32186;SDS011;18686;53.084;8.872;2023-02-23T14:35:35;68.20;;;30.38;;
32186;SDS011;18686;53.084;8.872;2023-02-23T14:38:16;60.90;;;29.95;;
32186;SDS011;18686;53.084;8.872;2023-02-23T14:41:12;62.40;;;29.55;;
32186;SDS011;18686;53.084;8.872;2023-02-23T14:43:41;60.97;;;30.10;;
32186;SDS011;18686;53.084;8.872;2023-02-23T14:46:16;68.85;;;30.65;;
32186;SDS011;18686;53.084;8.872;2023-02-23T14:48:59;61.28;;;28.90;;
32186;SDS011;18686;53.084;8.872;2023-02-23T14:51:36;72.53;;;30.45;;
32186;SDS011;18686;53.084;8.872;2023-02-23T14:54:11;62.28;;;29.20;;
32186;SDS011;18686;53.084;8.872;2023-02-23T14:56:49;55.22;;;27.05;;
32186;SDS011;18686;53.084;8.872;2023-02-23T14:59:19;55.78;;;27.33;;
32186;SDS011;18686;53.084;8.872;2023-02-23T15:01:51;57.65;;;26.70;;
32186;SDS011;18686;53.084;8.872;2023-02-23T15:04:21;60.10;;;26.63;;
32186;SDS011;18686;53.084;8.872;2023-02-23T15:06:53;57.40;;;26.58;;
32186;SDS011;18686;53.084;8.872;2023-02-23T15:09:28;53.72;;;26.00;;
32186;SDS011;18686;53.084;8.872;2023-02-23T15:12:02;59.58;;;27.45;;
32186;SDS011;18686;53.084;8.872;2023-02-23T15:14:38;52.10;;;24.35;;
32186;SDS011;18686;53.084;8.872;2023-02-23T15:17:17;50.78;;;23.42;;